sensor_id;sensor_type;location;lat;lon;timestamp;temperature;humidity
27258;DHT22;62045;49.986;8.672;2023-02-26T00:02:38;16.20;51.40
27258;DHT22;62045;49.986;8.672;2023-02-26T00:07:39;16.20;51.40
27258;DHT22;62045;49.986;8.672;2023-02-26T00:12:40;16.10;51.40
27258;DHT22;62045;49.986;8.672;2023-02-26T00:17:41;16.00;51.50
27258;DHT22;62045;49.986;8.672;2023-02-26T00:22:45;16.00;51.70
27258;DHT22;62045;49.986;8.672;2023-02-26T00:27:45;15.90;51.80
27258;DHT22;62045;49.986;8.672;2023-02-26T00:32:46;15.80;51.80
27258;DHT22;62045;49.986;8.672;2023-02-26T00:37:51;15.80;51.90
27258;DHT22;62045;49.986;8.672;2023-02-26T00:42:53;15.90;51.90
27258;DHT22;62045;49.986;8.672;2023-02-26T00:47:54;16.00;51.80
27258;DHT22;62045;49.986;8.672;2023-02-26T00:53:03;16.10;51.70
27258;DHT22;62045;49.986;8.672;2023-02-26T00:58:09;16.20;51.50
27258;DHT22;62045;49.986;8.672;2023-02-26T01:03:09;16.20;51.50
27258;DHT22;62045;49.986;8.672;2023-02-26T01:08:13;16.10;51.40
27258;DHT22;62045;49.986;8.672;2023-02-26T01:13:15;16.10;51.50
27258;DHT22;62045;49.986;8.672;2023-02-26T01:18:17;16.00;51.60
27258;DHT22;62045;49.986;8.672;2023-02-26T01:23:20;15.90;51.70
27258;DHT22;62045;49.986;8.672;2023-02-26T01:28:22;15.80;51.80
27258;DHT22;62045;49.986;8.672;2023-02-26T01:33:24;15.70;51.90
27258;DHT22;62045;49.986;8.672;2023-02-26T01:38:29;15.70;52.00
27258;DHT22;62045;49.986;8.672;2023-02-26T01:43:36;15.80;52.00
27258;DHT22;62045;49.986;8.672;2023-02-26T01:48:42;15.90;51.80
27258;DHT22;62045;49.986;8.672;2023-02-26T01:53:48;16.10;51.60
27258;DHT22;62045;49.986;8.672;2023-02-26T01:58:49;16.10;51.40
27258;DHT22;62045;49.986;8.672;2023-02-26T02:03:49;16.10;51.30
27258;DHT22;62045;49.986;8.672;2023-02-26T02:08:52;16.10;51.30
27258;DHT22;62045;49.986;8.672;2023-02-26T02:13:55;16.00;51.40
27258;DHT22;62045;49.986;8.672;2023-02-26T02:19:03;16.00;51.50
27258;DHT22;62045;49.986;8.672;2023-02-26T02:24:09;15.90;51.60
27258;DHT22;62045;49.986;8.672;2023-02-26T02:29:26;15.80;51.70
27258;DHT22;62045;49.986;8.672;2023-02-26T02:34:32;15.70;51.80
27258;DHT22;62045;49.986;8.672;2023-02-26T02:39:35;15.70;51.90
27258;DHT22;62045;49.986;8.672;2023-02-26T02:44:38;15.80;51.80
27258;DHT22;62045;49.986;8.672;2023-02-26T02:49:41;15.90;51.50
27258;DHT22;62045;49.986;8.672;2023-02-26T02:54:46;16.00;51.30
27258;DHT22;62045;49.986;8.672;2023-02-26T02:59:48;16.10;51.10
27258;DHT22;62045;49.986;8.672;2023-02-26T03:04:52;16.10;51.10
27258;DHT22;62045;49.986;8.672;2023-02-26T03:09:52;16.00;51.10
27258;DHT22;62045;49.986;8.672;2023-02-26T03:14:53;16.00;51.20
27258;DHT22;62045;49.986;8.672;2023-02-26T03:20:01;15.90;51.20
27258;DHT22;62045;49.986;8.672;2023-02-26T03:25:05;15.80;51.30
27258;DHT22;62045;49.986;8.672;2023-02-26T03:30:08;15.80;51.60
27258;DHT22;62045;49.986;8.672;2023-02-26T03:35:26;15.70;51.60
27258;DHT22;62045;49.986;8.672;2023-02-26T03:40:30;15.80;51.60
27258;DHT22;62045;49.986;8.672;2023-02-26T03:45:32;15.80;51.50
27258;DHT22;62045;49.986;8.672;2023-02-26T03:50:36;16.00;51.40
27258;DHT22;62045;49.986;8.672;2023-02-26T03:55:55;16.00;51.10
27258;DHT22;62045;49.986;8.672;2023-02-26T04:01:16;16.10;51.10
27258;DHT22;62045;49.986;8.672;2023-02-26T04:06:20;16.00;51.00
27258;DHT22;62045;49.986;8.672;2023-02-26T04:11:21;16.00;51.10
27258;DHT22;62045;49.986;8.672;2023-02-26T04:16:23;15.90;51.20
27258;DHT22;62045;49.986;8.672;2023-02-26T04:21:25;15.80;51.30
27258;DHT22;62045;49.986;8.672;2023-02-26T04:26:26;15.70;51.40
27258;DHT22;62045;49.986;8.672;2023-02-26T04:31:27;15.60;51.60
27258;DHT22;62045;49.986;8.672;2023-02-26T04:36:29;15.60;51.60
27258;DHT22;62045;49.986;8.672;2023-02-26T04:41:32;15.70;51.50
27258;DHT22;62045;49.986;8.672;2023-02-26T04:46:32;15.90;51.40
27258;DHT22;62045;49.986;8.672;2023-02-26T04:51:35;15.90;51.20
27258;DHT22;62045;49.986;8.672;2023-02-26T04:56:35;15.90;51.00
27258;DHT22;62045;49.986;8.672;2023-02-26T05:01:37;15.90;51.00
27258;DHT22;62045;49.986;8.672;2023-02-26T05:06:42;15.80;51.10
27258;DHT22;62045;49.986;8.672;2023-02-26T05:11:43;15.70;51.20
27258;DHT22;62045;49.986;8.672;2023-02-26T05:16:43;15.60;51.20
27258;DHT22;62045;49.986;8.672;2023-02-26T05:21:45;15.60;51.40
27258;DHT22;62045;49.986;8.672;2023-02-26T05:26:46;15.70;51.40
27258;DHT22;62045;49.986;8.672;2023-02-26T05:31:47;15.90;51.20
27258;DHT22;62045;49.986;8.672;2023-02-26T05:36:49;16.00;50.80
27258;DHT22;62045;49.986;8.672;2023-02-26T05:41:49;16.10;50.60
27258;DHT22;62045;49.986;8.672;2023-02-26T05:46:50;16.10;50.50
27258;DHT22;62045;49.986;8.672;2023-02-26T05:51:52;16.10;50.40
27258;DHT22;62045;49.986;8.672;2023-02-26T05:56:52;16.10;50.60
27258;DHT22;62045;49.986;8.672;2023-02-26T06:01:53;16.00;50.60
27258;DHT22;62045;49.986;8.672;2023-02-26T06:06:54;15.80;50.70
27258;DHT22;62045;49.986;8.672;2023-02-26T06:11:55;15.70;50.90
27258;DHT22;62045;49.986;8.672;2023-02-26T06:16:55;15.70;51.00
27258;DHT22;62045;49.986;8.672;2023-02-26T06:21:57;15.70;51.10
27258;DHT22;62045;49.986;8.672;2023-02-26T06:26:58;15.90;50.80
27258;DHT22;62045;49.986;8.672;2023-02-26T06:31:58;16.10;50.40
27258;DHT22;62045;49.986;8.672;2023-02-26T06:37:00;16.20;50.10
27258;DHT22;62045;49.986;8.672;2023-02-26T06:42:01;16.30;50.10
27258;DHT22;62045;49.986;8.672;2023-02-26T06:47:01;16.30;50.10
27258;DHT22;62045;49.986;8.672;2023-02-26T06:52:03;16.20;50.10
27258;DHT22;62045;49.986;8.672;2023-02-26T06:57:04;16.10;50.20
27258;DHT22;62045;49.986;8.672;2023-02-26T07:02:05;15.90;50.30
27258;DHT22;62045;49.986;8.672;2023-02-26T07:07:07;15.80;50.50
27258;DHT22;62045;49.986;8.672;2023-02-26T07:12:07;15.70;50.50
27258;DHT22;62045;49.986;8.672;2023-02-26T07:17:08;15.60;50.70
27258;DHT22;62045;49.986;8.672;2023-02-26T07:22:10;15.60;50.80
27258;DHT22;62045;49.986;8.672;2023-02-26T07:27:11;15.80;50.50
27258;DHT22;62045;49.986;8.672;2023-02-26T07:32:12;16.00;49.90
27258;DHT22;62045;49.986;8.672;2023-02-26T07:37:13;16.10;49.70
27258;DHT22;62045;49.986;8.672;2023-02-26T07:42:14;16.10;49.40
27258;DHT22;62045;49.986;8.672;2023-02-26T07:47:16;16.10;49.60
27258;DHT22;62045;49.986;8.672;2023-02-26T07:52:17;16.00;49.70
27258;DHT22;62045;49.986;8.672;2023-02-26T07:57:18;15.90;49.80
27258;DHT22;62045;49.986;8.672;2023-02-26T08:02:18;15.80;50.20
27258;DHT22;62045;49.986;8.672;2023-02-26T08:07:20;15.70;50.90
27258;DHT22;62045;49.986;8.672;2023-02-26T08:12:21;15.60;50.80
27258;DHT22;62045;49.986;8.672;2023-02-26T08:17:22;15.60;50.60
27258;DHT22;62045;49.986;8.672;2023-02-26T08:22:24;15.60;50.40
27258;DHT22;62045;49.986;8.672;2023-02-26T08:27:24;15.70;50.10
27258;DHT22;62045;49.986;8.672;2023-02-26T08:32:25;15.90;49.50
27258;DHT22;62045;49.986;8.672;2023-02-26T08:37:27;16.10;49.10
27258;DHT22;62045;49.986;8.672;2023-02-26T08:42:27;16.00;48.90
27258;DHT22;62045;49.986;8.672;2023-02-26T08:47:28;16.00;48.60
27258;DHT22;62045;49.986;8.672;2023-02-26T08:52:30;15.90;48.70
27258;DHT22;62045;49.986;8.672;2023-02-26T08:57:30;15.80;48.70
27258;DHT22;62045;49.986;8.672;2023-02-26T09:02:31;15.70;48.70
27258;DHT22;62045;49.986;8.672;2023-02-26T09:07:33;15.60;48.60
27258;DHT22;62045;49.986;8.672;2023-02-26T09:12:33;15.50;49.00
27258;DHT22;62045;49.986;8.672;2023-02-26T09:17:34;15.50;48.90
27258;DHT22;62045;49.986;8.672;2023-02-26T09:22:36;15.70;48.70
27258;DHT22;62045;49.986;8.672;2023-02-26T09:27:36;15.80;48.70
27258;DHT22;62045;49.986;8.672;2023-02-26T09:32:37;15.80;48.60
27258;DHT22;62045;49.986;8.672;2023-02-26T09:37:39;15.80;48.20
27258;DHT22;62045;49.986;8.672;2023-02-26T09:42:43;15.70;48.30
27258;DHT22;62045;49.986;8.672;2023-02-26T09:47:49;15.60;48.10
27258;DHT22;62045;49.986;8.672;2023-02-26T09:52:54;15.60;47.80
27258;DHT22;62045;49.986;8.672;2023-02-26T09:57:58;15.50;47.50
27258;DHT22;62045;49.986;8.672;2023-02-26T10:03:00;15.50;47.10
27258;DHT22;62045;49.986;8.672;2023-02-26T10:08:07;15.50;46.10
27258;DHT22;62045;49.986;8.672;2023-02-26T10:13:10;15.50;45.60
27258;DHT22;62045;49.986;8.672;2023-02-26T10:18:15;15.50;45.90
27258;DHT22;62045;49.986;8.672;2023-02-26T10:23:21;15.50;46.10
27258;DHT22;62045;49.986;8.672;2023-02-26T10:28:36;15.50;46.30
27258;DHT22;62045;49.986;8.672;2023-02-26T10:33:39;15.40;46.50
27258;DHT22;62045;49.986;8.672;2023-02-26T10:38:46;15.30;46.80
27258;DHT22;62045;49.986;8.672;2023-02-26T10:43:48;15.30;46.80
27258;DHT22;62045;49.986;8.672;2023-02-26T10:48:51;15.30;47.20
27258;DHT22;62045;49.986;8.672;2023-02-26T10:53:56;15.40;47.00
27258;DHT22;62045;49.986;8.672;2023-02-26T10:58:57;15.50;47.20
27258;DHT22;62045;49.986;8.672;2023-02-26T11:03:59;15.50;46.80
27258;DHT22;62045;49.986;8.672;2023-02-26T11:09:01;15.50;46.80
27258;DHT22;62045;49.986;8.672;2023-02-26T11:14:02;15.50;46.90
27258;DHT22;62045;49.986;8.672;2023-02-26T11:19:02;15.40;47.00
27258;DHT22;62045;49.986;8.672;2023-02-26T11:24:08;15.40;47.20
27258;DHT22;62045;49.986;8.672;2023-02-26T11:29:13;15.30;47.40
27258;DHT22;62045;49.986;8.672;2023-02-26T11:34:14;15.30;47.40
27258;DHT22;62045;49.986;8.672;2023-02-26T11:39:16;15.50;47.30
27258;DHT22;62045;49.986;8.672;2023-02-26T11:44:18;15.70;46.90
27258;DHT22;62045;49.986;8.672;2023-02-26T11:49:20;15.80;46.70
27258;DHT22;62045;49.986;8.672;2023-02-26T11:54:24;15.90;46.40
27258;DHT22;62045;49.986;8.672;2023-02-26T11:59:26;15.90;46.40
27258;DHT22;62045;49.986;8.672;2023-02-26T12:04:30;15.80;46.50
27258;DHT22;62045;49.986;8.672;2023-02-26T12:09:32;15.70;46.60
27258;DHT22;62045;49.986;8.672;2023-02-26T12:20:08;15.50;46.90
27258;DHT22;62045;49.986;8.672;2023-02-26T12:30:37;15.50;47.70
27258;DHT22;62045;49.986;8.672;2023-02-26T12:35:44;15.80;48.30
27258;DHT22;62045;49.986;8.672;2023-02-26T12:40:49;16.00;48.00
27258;DHT22;62045;49.986;8.672;2023-02-26T12:45:53;16.00;47.60
27258;DHT22;62045;49.986;8.672;2023-02-26T12:50:57;16.10;47.60
27258;DHT22;62045;49.986;8.672;2023-02-26T12:56:02;16.10;47.40
27258;DHT22;62045;49.986;8.672;2023-02-26T13:01:10;16.00;47.50
27258;DHT22;62045;49.986;8.672;2023-02-26T13:06:19;15.90;47.60
27258;DHT22;62045;49.986;8.672;2023-02-26T13:11:29;15.70;47.70
27258;DHT22;62045;49.986;8.672;2023-02-26T13:16:37;15.60;47.80
27258;DHT22;62045;49.986;8.672;2023-02-26T13:21:40;15.50;47.80
27258;DHT22;62045;49.986;8.672;2023-02-26T13:26:42;15.40;48.00
27258;DHT22;62045;49.986;8.672;2023-02-26T13:31:48;15.30;48.20
27258;DHT22;62045;49.986;8.672;2023-02-26T13:36:49;15.40;48.70
27258;DHT22;62045;49.986;8.672;2023-02-26T13:41:53;15.70;48.20
27258;DHT22;62045;49.986;8.672;2023-02-26T13:47:02;16.00;47.60
27258;DHT22;62045;49.986;8.672;2023-02-26T13:52:13;16.30;47.10
27258;DHT22;62045;49.986;8.672;2023-02-26T13:57:25;16.30;47.00
27258;DHT22;62045;49.986;8.672;2023-02-26T14:02:52;16.30;46.70
27258;DHT22;62045;49.986;8.672;2023-02-26T14:08:06;16.20;46.80
27258;DHT22;62045;49.986;8.672;2023-02-26T14:13:09;16.20;46.90
27258;DHT22;62045;49.986;8.672;2023-02-26T14:18:23;16.00;47.00
27258;DHT22;62045;49.986;8.672;2023-02-26T14:23:34;15.90;47.20
27258;DHT22;62045;49.986;8.672;2023-02-26T14:28:43;15.70;47.40
27258;DHT22;62045;49.986;8.672;2023-02-26T14:33:46;15.60;47.60
27258;DHT22;62045;49.986;8.672;2023-02-26T14:38:47;15.60;47.70
27258;DHT22;62045;49.986;8.672;2023-02-26T14:43:49;15.60;47.80
27258;DHT22;62045;49.986;8.672;2023-02-26T14:48:51;15.80;47.70
27258;DHT22;62045;49.986;8.672;2023-02-26T14:53:58;16.00;47.20
27258;DHT22;62045;49.986;8.672;2023-02-26T14:59:08;16.20;46.90
27258;DHT22;62045;49.986;8.672;2023-02-26T15:04:21;16.20;46.80
27258;DHT22;62045;49.986;8.672;2023-02-26T15:09:24;16.20;46.50
27258;DHT22;62045;49.986;8.672;2023-02-26T15:20:00;16.00;46.80
27258;DHT22;62045;49.986;8.672;2023-02-26T15:25:03;15.90;47.20
27258;DHT22;62045;49.986;8.672;2023-02-26T15:30:06;15.80;47.30
27258;DHT22;62045;49.986;8.672;2023-02-26T15:35:13;15.80;47.50
27258;DHT22;62045;49.986;8.672;2023-02-26T15:40:14;15.70;48.90
27258;DHT22;62045;49.986;8.672;2023-02-26T15:45:15;15.90;50.70
27258;DHT22;62045;49.986;8.672;2023-02-26T15:50:19;16.10;54.10
27258;DHT22;62045;49.986;8.672;2023-02-26T15:55:22;16.20;53.30
27258;DHT22;62045;49.986;8.672;2023-02-26T16:00:23;16.40;52.40
27258;DHT22;62045;49.986;8.672;2023-02-26T16:05:25;16.70;52.40
27258;DHT22;62045;49.986;8.672;2023-02-26T16:10:27;16.90;53.00
27258;DHT22;62045;49.986;8.672;2023-02-26T16:15:28;17.20;53.60
27258;DHT22;62045;49.986;8.672;2023-02-26T16:20:36;17.40;53.90
27258;DHT22;62045;49.986;8.672;2023-02-26T16:25:37;17.70;56.20
27258;DHT22;62045;49.986;8.672;2023-02-26T16:30:40;18.60;49.40
27258;DHT22;62045;49.986;8.672;2023-02-26T16:35:44;19.00;46.80
27258;DHT22;62045;49.986;8.672;2023-02-26T16:40:46;19.10;46.70
27258;DHT22;62045;49.986;8.672;2023-02-26T16:45:54;19.10;46.60
27258;DHT22;62045;49.986;8.672;2023-02-26T16:50:57;18.90;46.70
27258;DHT22;62045;49.986;8.672;2023-02-26T16:55:58;18.70;47.30
27258;DHT22;62045;49.986;8.672;2023-02-26T17:01:04;18.40;47.50
27258;DHT22;62045;49.986;8.672;2023-02-26T17:06:08;18.20;47.80
27258;DHT22;62045;49.986;8.672;2023-02-26T17:11:16;18.00;48.10
27258;DHT22;62045;49.986;8.672;2023-02-26T17:16:17;17.80;48.30
27258;DHT22;62045;49.986;8.672;2023-02-26T17:21:19;17.60;48.60
27258;DHT22;62045;49.986;8.672;2023-02-26T17:26:20;17.40;49.30
27258;DHT22;62045;49.986;8.672;2023-02-26T17:31:20;17.20;48.90
27258;DHT22;62045;49.986;8.672;2023-02-26T17:36:22;17.10;49.10
27258;DHT22;62045;49.986;8.672;2023-02-26T17:41:23;17.10;49.00
27258;DHT22;62045;49.986;8.672;2023-02-26T17:46:23;17.20;48.50
27258;DHT22;62045;49.986;8.672;2023-02-26T17:51:25;17.30;48.30
27258;DHT22;62045;49.986;8.672;2023-02-26T17:56:26;17.30;48.30
27258;DHT22;62045;49.986;8.672;2023-02-26T18:01:27;17.30;48.60
27258;DHT22;62045;49.986;8.672;2023-02-26T18:06:30;17.20;49.00
27258;DHT22;62045;49.986;8.672;2023-02-26T18:11:32;17.20;49.40
27258;DHT22;62045;49.986;8.672;2023-02-26T18:16:34;17.10;49.70
27258;DHT22;62045;49.986;8.672;2023-02-26T18:21:36;16.90;53.40
27258;DHT22;62045;49.986;8.672;2023-02-26T18:26:36;16.90;53.00
27258;DHT22;62045;49.986;8.672;2023-02-26T18:31:37;16.80;53.10
27258;DHT22;62045;49.986;8.672;2023-02-26T18:36:39;16.70;52.20
27258;DHT22;62045;49.986;8.672;2023-02-26T18:41:39;16.70;52.10
27258;DHT22;62045;49.986;8.672;2023-02-26T18:46:40;16.60;52.00
27258;DHT22;62045;49.986;8.672;2023-02-26T18:51:42;16.40;52.10
27258;DHT22;62045;49.986;8.672;2023-02-26T18:56:42;16.30;51.90
27258;DHT22;62045;49.986;8.672;2023-02-26T19:01:43;16.30;52.00
27258;DHT22;62045;49.986;8.672;2023-02-26T19:06:45;16.40;52.50
27258;DHT22;62045;49.986;8.672;2023-02-26T19:11:45;16.40;51.60
27258;DHT22;62045;49.986;8.672;2023-02-26T19:16:46;16.50;51.30
27258;DHT22;62045;49.986;8.672;2023-02-26T19:21:48;16.50;51.00
27258;DHT22;62045;49.986;8.672;2023-02-26T19:26:49;16.40;51.00
27258;DHT22;62045;49.986;8.672;2023-02-26T19:31:49;16.40;51.10
27258;DHT22;62045;49.986;8.672;2023-02-26T19:36:51;16.30;51.20
27258;DHT22;62045;49.986;8.672;2023-02-26T19:41:52;16.20;51.10
27258;DHT22;62045;49.986;8.672;2023-02-26T19:46:55;16.10;51.30
27258;DHT22;62045;49.986;8.672;2023-02-26T19:51:57;16.00;51.30
27258;DHT22;62045;49.986;8.672;2023-02-26T19:56:58;15.90;51.50
27258;DHT22;62045;49.986;8.672;2023-02-26T20:01:58;15.90;52.10
27258;DHT22;62045;49.986;8.672;2023-02-26T20:07:00;16.00;52.00
27258;DHT22;62045;49.986;8.672;2023-02-26T20:12:01;16.10;51.60
27258;DHT22;62045;49.986;8.672;2023-02-26T20:17:02;16.20;51.10
27258;DHT22;62045;49.986;8.672;2023-02-26T20:22:04;16.30;51.00
27258;DHT22;62045;49.986;8.672;2023-02-26T20:27:04;16.30;50.90
27258;DHT22;62045;49.986;8.672;2023-02-26T20:32:05;16.20;50.90
27258;DHT22;62045;49.986;8.672;2023-02-26T20:37:07;16.10;51.00
27258;DHT22;62045;49.986;8.672;2023-02-26T20:42:08;16.00;51.00
27258;DHT22;62045;49.986;8.672;2023-02-26T20:47:08;15.90;51.10
27258;DHT22;62045;49.986;8.672;2023-02-26T20:52:10;15.90;51.20
27258;DHT22;62045;49.986;8.672;2023-02-26T20:57:11;15.80;51.90
27258;DHT22;62045;49.986;8.672;2023-02-26T21:02:12;15.80;51.50
27258;DHT22;62045;49.986;8.672;2023-02-26T21:07:14;16.00;51.50
27258;DHT22;62045;49.986;8.672;2023-02-26T21:12:15;16.20;51.10
27258;DHT22;62045;49.986;8.672;2023-02-26T21:17:15;16.30;51.00
27258;DHT22;62045;49.986;8.672;2023-02-26T21:22:17;16.30;51.20
27258;DHT22;62045;49.986;8.672;2023-02-26T21:27:18;16.30;51.20
27258;DHT22;62045;49.986;8.672;2023-02-26T21:32:19;16.20;51.10
27258;DHT22;62045;49.986;8.672;2023-02-26T21:37:21;16.10;51.10
27258;DHT22;62045;49.986;8.672;2023-02-26T21:42:22;16.00;51.20
27258;DHT22;62045;49.986;8.672;2023-02-26T21:47:22;15.90;51.20
27258;DHT22;62045;49.986;8.672;2023-02-26T21:52:24;15.80;51.30
27258;DHT22;62045;49.986;8.672;2023-02-26T21:57:25;15.70;51.50
27258;DHT22;62045;49.986;8.672;2023-02-26T22:02:25;15.60;51.60
27258;DHT22;62045;49.986;8.672;2023-02-26T22:07:27;15.50;51.70
27258;DHT22;62045;49.986;8.672;2023-02-26T22:12:28;15.50;51.80
27258;DHT22;62045;49.986;8.672;2023-02-26T22:17:29;15.40;51.80
27258;DHT22;62045;49.986;8.672;2023-02-26T22:22:30;15.40;52.00
27258;DHT22;62045;49.986;8.672;2023-02-26T22:27:31;15.40;52.10
27258;DHT22;62045;49.986;8.672;2023-02-26T22:32:32;15.50;51.80
27258;DHT22;62045;49.986;8.672;2023-02-26T22:37:34;15.70;51.50
27258;DHT22;62045;49.986;8.672;2023-02-26T22:42:35;15.90;51.10
27258;DHT22;62045;49.986;8.672;2023-02-26T22:47:35;16.10;50.70
27258;DHT22;62045;49.986;8.672;2023-02-26T22:52:37;16.20;50.30
27258;DHT22;62045;49.986;8.672;2023-02-26T22:57:38;16.30;50.20
27258;DHT22;62045;49.986;8.672;2023-02-26T23:02:38;16.30;50.20
27258;DHT22;62045;49.986;8.672;2023-02-26T23:07:40;16.20;50.10
27258;DHT22;62045;49.986;8.672;2023-02-26T23:12:41;16.10;50.30
27258;DHT22;62045;49.986;8.672;2023-02-26T23:17:42;16.00;50.40
27258;DHT22;62045;49.986;8.672;2023-02-26T23:22:44;15.90;50.60
27258;DHT22;62045;49.986;8.672;2023-02-26T23:27:44;15.70;50.60
27258;DHT22;62045;49.986;8.672;2023-02-26T23:32:45;15.60;50.80
27258;DHT22;62045;49.986;8.672;2023-02-26T23:37:47;15.60;51.00
27258;DHT22;62045;49.986;8.672;2023-02-26T23:42:47;15.70;50.90
27258;DHT22;62045;49.986;8.672;2023-02-26T23:47:48;15.80;50.70
27258;DHT22;62045;49.986;8.672;2023-02-26T23:52:50;16.00;50.40
27258;DHT22;62045;49.986;8.672;2023-02-26T23:57:51;16.20;50.20
